Terminal Aerodrome Forecast
Issued by NWS

Home | Current Version | Previous Version | Graphics & Text | Print | Product List | Glossary On
Versions: 1 2 3 4 5 6 7 8 9 10 11 12 13 14
388
FTUS43 KICT 212322
TAFSLN
TAF
KSLN 212322Z 2200/2224 16008KT P6SM SKC
     FM221400 17008KT P6SM SCT250
     FM221900 18013G20KT P6SM SCT250=

USA.gov is the U.S. government's official web portal to all federal, state and local government web resources and services.